<?xml version="1.0" encoding="utf-8"?>
<gpx xmlns:xsi="http://www.w3.org/2001/XMLSchema-instance" xmlns:xsd="http://www.w3.org/2001/XMLSchema" version="1.1" creator="Shapelink.com" xmlns="http://www.topografix.com/GPX/1/1" xmlns:gpxtpx="http://www.garmin.com/xmlschemas/TrackPointExtension/v1">
  <metadata>
    <name>Svømming 1.30 km, 2019-06-25</name>
    <desc></desc>
    <author><name>Stefan Östlund</name></author> 
    <time>2019-06-25T17:42:23Z</time>
  </metadata>
  <trk>
    <name>Svømming 1.30 km, 2019-06-25</name>
    <trkseg>
      <trkpt lat="59.97583217258" lon="15.785839889663">
        <ele>0</ele>
        <time>2019-06-25T17:42:23Z</time>
        <extensions><gpxtpx:TrackPointExtension><gpxtpx:hr>102</gpxtpx:hr></gpxtpx:TrackPointExtension></extensions>
      </trkpt>
      <trkpt lat="59.975836112073" lon="15.785840811672">
        <ele>0</ele>
        <time>2019-06-25T17:42:36Z</time>
      </trkpt>
      <trkpt lat="59.975961170021" lon="15.785803763674">
        <ele>0</ele>
        <time>2019-06-25T17:42:56Z</time>
      </trkpt>
      <trkpt lat="59.976448912782" lon="15.785943741404">
        <ele>0</ele>
        <time>2019-06-25T17:44:02Z</time>
      </trkpt>
      <trkpt lat="59.976778740547" lon="15.785637802054">
        <ele>0</ele>
        <time>2019-06-25T17:45:03Z</time>
      </trkpt>
      <trkpt lat="59.977299256537" lon="15.785645429583">
        <ele>0</ele>
        <time>2019-06-25T17:46:04Z</time>
      </trkpt>
      <trkpt lat="59.977676442037" lon="15.785776522499">
        <ele>0</ele>
        <time>2019-06-25T17:47:08Z</time>
      </trkpt>
      <trkpt lat="59.978096291408" lon="15.785873249625">
        <ele>0</ele>
        <time>2019-06-25T17:48:12Z</time>
      </trkpt>
      <trkpt lat="59.978365266579" lon="15.785574015795">
        <ele>0</ele>
        <time>2019-06-25T17:49:56Z</time>
      </trkpt>
      <trkpt lat="59.978214979112" lon="15.784733478863">
        <ele>0</ele>
        <time>2019-06-25T17:50:47Z</time>
      </trkpt>
      <trkpt lat="59.977940471887" lon="15.784094526626">
        <ele>0</ele>
        <time>2019-06-25T17:51:51Z</time>
      </trkpt>
      <trkpt lat="59.97758147511" lon="15.783417520563">
        <ele>0</ele>
        <time>2019-06-25T17:52:59Z</time>
      </trkpt>
      <trkpt lat="59.977011589729" lon="15.782433988417">
        <ele>0</ele>
        <time>2019-06-25T17:55:01Z</time>
      </trkpt>
      <trkpt lat="59.976662651232" lon="15.782096365485">
        <ele>0</ele>
        <time>2019-06-25T17:56:01Z</time>
      </trkpt>
      <trkpt lat="59.9762076817" lon="15.782072393251">
        <ele>0</ele>
        <time>2019-06-25T17:57:26Z</time>
      </trkpt>
      <trkpt lat="59.975822533395" lon="15.782459637031">
        <ele>0</ele>
        <time>2019-06-25T17:58:26Z</time>
      </trkpt>
      <trkpt lat="59.975329007123" lon="15.78274386726">
        <ele>0</ele>
        <time>2019-06-25T17:59:32Z</time>
      </trkpt>
      <trkpt lat="59.975557330079" lon="15.783813984433">
        <ele>0</ele>
        <time>2019-06-25T18:00:35Z</time>
      </trkpt>
      <trkpt lat="59.975632180446" lon="15.784714619588">
        <ele>0</ele>
        <time>2019-06-25T18:01:41Z</time>
      </trkpt>
      <trkpt lat="59.975696050524" lon="15.785490699709">
        <ele>0</ele>
        <time>2019-06-25T18:02:42Z</time>
      </trkpt>
      <trkpt lat="59.975754640005" lon="15.785703180874">
        <ele>0</ele>
        <time>2019-06-25T18:03:48Z</time>
      </trkpt>
      <trkpt lat="59.975824964146" lon="15.785679292459">
        <ele>0</ele>
        <time>2019-06-25T18:04:35Z</time>
      </trkpt>
      <trkpt lat="59.975767380493" lon="15.784693245743">
        <ele>0</ele>
        <time>2019-06-25T18:05:56Z</time>
      </trkpt>
      <trkpt lat="59.975420369833" lon="15.783873076828">
        <ele>0</ele>
        <time>2019-06-25T18:06:57Z</time>
      </trkpt>
      <trkpt lat="59.975292126763" lon="15.784143225465">
        <ele>0</ele>
        <time>2019-06-25T18:08:53Z</time>
      </trkpt>
      <trkpt lat="59.975555234604" lon="15.784911258962">
        <ele>0</ele>
        <time>2019-06-25T18:09:57Z</time>
      </trkpt>
      <trkpt lat="59.975815827875" lon="15.785746515297">
        <ele>0</ele>
        <time>2019-06-25T18:10:55Z</time>
      </trkpt>
      <trkpt lat="59.976104835787" lon="15.786087323351">
        <ele>0</ele>
        <time>2019-06-25T18:13:01Z</time>
      </trkpt>
      <trkpt lat="59.976130232944" lon="15.786408266302">
        <ele>0</ele>
        <time>2019-06-25T18:14:00Z</time>
      </trkpt>
    </trkseg>
  </trk>
</gpx>